sensor_id;sensor_type;location;lat;lon;timestamp;P1;durP1;ratioP1;P2;durP2;ratioP2
39882;SDS011;55824;52.220;21.040;2023-05-23T00:01:24;10.32;;;6.75;;
39882;SDS011;55824;52.220;21.040;2023-05-23T00:03:50;9.43;;;6.70;;
39882;SDS011;55824;52.220;21.040;2023-05-23T00:06:19;9.50;;;6.32;;
39882;SDS011;55824;52.220;21.040;2023-05-23T00:08:45;9.82;;;5.95;;
39882;SDS011;55824;52.220;21.040;2023-05-23T00:11:11;9.40;;;5.97;;
39882;SDS011;55824;52.220;21.040;2023-05-23T00:13:37;8.98;;;6.50;;
39882;SDS011;55824;52.220;21.040;2023-05-23T00:16:04;7.55;;;5.75;;
39882;SDS011;55824;52.220;21.040;2023-05-23T00:20:59;8.93;;;6.03;;
39882;SDS011;55824;52.220;21.040;2023-05-23T00:23:26;8.13;;;5.60;;
39882;SDS011;55824;52.220;21.040;2023-05-23T00:25:53;8.02;;;5.90;;
39882;SDS011;55824;52.220;21.040;2023-05-23T00:28:20;8.25;;;6.07;;
39882;SDS011;55824;52.220;21.040;2023-05-23T00:30:46;8.25;;;6.13;;
39882;SDS011;55824;52.220;21.040;2023-05-23T00:33:13;10.68;;;6.25;;
39882;SDS011;55824;52.220;21.040;2023-05-23T00:35:42;8.77;;;5.93;;
39882;SDS011;55824;52.220;21.040;2023-05-23T00:38:08;8.83;;;5.97;;
39882;SDS011;55824;52.220;21.040;2023-05-23T00:40:35;8.20;;;5.38;;
39882;SDS011;55824;52.220;21.040;2023-05-23T00:43:01;7.90;;;5.70;;
39882;SDS011;55824;52.220;21.040;2023-05-23T00:45:27;8.18;;;5.18;;
39882;SDS011;55824;52.220;21.040;2023-05-23T00:47:53;8.75;;;5.80;;
39882;SDS011;55824;52.220;21.040;2023-05-23T00:50:19;8.95;;;5.45;;
39882;SDS011;55824;52.220;21.040;2023-05-23T00:52:45;7.95;;;5.70;;
39882;SDS011;55824;52.220;21.040;2023-05-23T00:55:12;8.82;;;4.95;;
39882;SDS011;55824;52.220;21.040;2023-05-23T00:57:38;6.93;;;5.13;;
39882;SDS011;55824;52.220;21.040;2023-05-23T01:00:08;10.40;;;5.53;;
39882;SDS011;55824;52.220;21.040;2023-05-23T01:02:36;10.27;;;5.03;;
39882;SDS011;55824;52.220;21.040;2023-05-23T01:05:05;7.13;;;4.95;;
39882;SDS011;55824;52.220;21.040;2023-05-23T01:07:31;7.53;;;5.25;;
39882;SDS011;55824;52.220;21.040;2023-05-23T01:09:57;6.75;;;4.95;;
39882;SDS011;55824;52.220;21.040;2023-05-23T01:12:34;8.45;;;5.65;;
39882;SDS011;55824;52.220;21.040;2023-05-23T01:15:03;7.15;;;4.85;;
39882;SDS011;55824;52.220;21.040;2023-05-23T01:20:14;7.05;;;4.90;;
39882;SDS011;55824;52.220;21.040;2023-05-23T01:30:20;7.18;;;5.30;;
39882;SDS011;55824;52.220;21.040;2023-05-23T01:32:47;6.32;;;4.63;;
39882;SDS011;55824;52.220;21.040;2023-05-23T01:35:14;7.18;;;4.90;;
39882;SDS011;55824;52.220;21.040;2023-05-23T01:37:44;7.25;;;4.75;;
39882;SDS011;55824;52.220;21.040;2023-05-23T01:40:11;7.97;;;4.65;;
39882;SDS011;55824;52.220;21.040;2023-05-23T01:42:37;6.50;;;4.80;;
39882;SDS011;55824;52.220;21.040;2023-05-23T01:45:03;7.22;;;4.88;;
39882;SDS011;55824;52.220;21.040;2023-05-23T01:47:29;6.15;;;4.55;;
39882;SDS011;55824;52.220;21.040;2023-05-23T01:49:55;8.38;;;5.10;;
39882;SDS011;55824;52.220;21.040;2023-05-23T01:52:22;6.43;;;4.90;;
39882;SDS011;55824;52.220;21.040;2023-05-23T01:54:49;6.50;;;4.65;;
39882;SDS011;55824;52.220;21.040;2023-05-23T01:57:15;7.88;;;5.20;;
39882;SDS011;55824;52.220;21.040;2023-05-23T01:59:42;6.55;;;4.82;;
39882;SDS011;55824;52.220;21.040;2023-05-23T02:02:08;8.65;;;5.25;;
39882;SDS011;55824;52.220;21.040;2023-05-23T02:04:34;7.53;;;4.90;;
39882;SDS011;55824;52.220;21.040;2023-05-23T02:07:00;26.02;;;11.73;;
39882;SDS011;55824;52.220;21.040;2023-05-23T02:09:26;11.48;;;5.32;;
39882;SDS011;55824;52.220;21.040;2023-05-23T02:11:52;8.68;;;5.35;;
39882;SDS011;55824;52.220;21.040;2023-05-23T02:14:18;8.23;;;4.82;;
39882;SDS011;55824;52.220;21.040;2023-05-23T02:16:44;6.97;;;5.15;;
39882;SDS011;55824;52.220;21.040;2023-05-23T02:19:10;5.95;;;4.03;;
39882;SDS011;55824;52.220;21.040;2023-05-23T02:21:36;8.00;;;4.22;;
39882;SDS011;55824;52.220;21.040;2023-05-23T02:24:02;7.95;;;4.75;;
39882;SDS011;55824;52.220;21.040;2023-05-23T02:26:28;8.13;;;5.18;;
39882;SDS011;55824;52.220;21.040;2023-05-23T02:28:54;8.77;;;4.95;;
39882;SDS011;55824;52.220;21.040;2023-05-23T02:31:20;9.63;;;4.95;;
39882;SDS011;55824;52.220;21.040;2023-05-23T02:33:47;7.88;;;4.70;;
39882;SDS011;55824;52.220;21.040;2023-05-23T02:36:13;10.25;;;5.00;;
39882;SDS011;55824;52.220;21.040;2023-05-23T02:38:39;6.88;;;4.57;;
39882;SDS011;55824;52.220;21.040;2023-05-23T02:41:05;9.68;;;5.25;;
39882;SDS011;55824;52.220;21.040;2023-05-23T02:43:31;10.10;;;5.10;;
39882;SDS011;55824;52.220;21.040;2023-05-23T02:45:57;8.82;;;5.45;;
39882;SDS011;55824;52.220;21.040;2023-05-23T02:48:23;9.23;;;5.03;;
39882;SDS011;55824;52.220;21.040;2023-05-23T02:50:49;8.50;;;5.50;;
39882;SDS011;55824;52.220;21.040;2023-05-23T02:53:15;9.13;;;4.95;;
39882;SDS011;55824;52.220;21.040;2023-05-23T02:55:41;9.07;;;4.90;;
39882;SDS011;55824;52.220;21.040;2023-05-23T02:58:07;8.60;;;4.88;;
39882;SDS011;55824;52.220;21.040;2023-05-23T03:00:33;10.82;;;5.53;;
39882;SDS011;55824;52.220;21.040;2023-05-23T03:03:00;7.63;;;5.10;;
39882;SDS011;55824;52.220;21.040;2023-05-23T03:05:26;8.20;;;5.13;;
39882;SDS011;55824;52.220;21.040;2023-05-23T03:07:52;7.93;;;4.25;;
39882;SDS011;55824;52.220;21.040;2023-05-23T03:10:18;9.00;;;5.72;;
39882;SDS011;55824;52.220;21.040;2023-05-23T03:12:45;7.70;;;4.53;;
39882;SDS011;55824;52.220;21.040;2023-05-23T03:15:11;7.38;;;4.90;;
39882;SDS011;55824;52.220;21.040;2023-05-23T03:17:37;7.53;;;4.60;;
39882;SDS011;55824;52.220;21.040;2023-05-23T03:20:03;7.03;;;4.68;;
39882;SDS011;55824;52.220;21.040;2023-05-23T03:24:59;6.43;;;4.78;;
39882;SDS011;55824;52.220;21.040;2023-05-23T03:27:25;6.30;;;4.40;;
39882;SDS011;55824;52.220;21.040;2023-05-23T03:29:51;9.57;;;4.60;;
39882;SDS011;55824;52.220;21.040;2023-05-23T03:32:17;5.65;;;4.38;;
39882;SDS011;55824;52.220;21.040;2023-05-23T03:34:43;7.43;;;4.13;;
39882;SDS011;55824;52.220;21.040;2023-05-23T03:37:09;6.78;;;4.57;;
39882;SDS011;55824;52.220;21.040;2023-05-23T03:39:35;7.38;;;4.68;;
39882;SDS011;55824;52.220;21.040;2023-05-23T03:42:01;7.32;;;4.57;;
39882;SDS011;55824;52.220;21.040;2023-05-23T03:44:27;6.88;;;4.63;;
39882;SDS011;55824;52.220;21.040;2023-05-23T03:46:53;8.57;;;5.40;;
39882;SDS011;55824;52.220;21.040;2023-05-23T03:49:19;6.30;;;4.55;;
39882;SDS011;55824;52.220;21.040;2023-05-23T03:51:45;6.43;;;4.20;;
39882;SDS011;55824;52.220;21.040;2023-05-23T03:54:11;6.07;;;4.53;;
39882;SDS011;55824;52.220;21.040;2023-05-23T03:56:37;8.10;;;4.60;;
39882;SDS011;55824;52.220;21.040;2023-05-23T03:59:03;6.93;;;4.55;;
39882;SDS011;55824;52.220;21.040;2023-05-23T04:01:29;6.35;;;4.20;;
39882;SDS011;55824;52.220;21.040;2023-05-23T04:03:55;6.85;;;4.18;;
39882;SDS011;55824;52.220;21.040;2023-05-23T04:06:21;6.32;;;3.97;;
39882;SDS011;55824;52.220;21.040;2023-05-23T04:08:47;7.28;;;4.35;;
39882;SDS011;55824;52.220;21.040;2023-05-23T04:11:13;5.63;;;4.05;;
39882;SDS011;55824;52.220;21.040;2023-05-23T04:13:39;6.30;;;4.15;;
39882;SDS011;55824;52.220;21.040;2023-05-23T04:16:06;7.75;;;4.40;;
39882;SDS011;55824;52.220;21.040;2023-05-23T04:18:32;6.97;;;4.82;;
39882;SDS011;55824;52.220;21.040;2023-05-23T04:20:58;8.50;;;5.55;;
39882;SDS011;55824;52.220;21.040;2023-05-23T04:23:24;8.68;;;4.30;;
39882;SDS011;55824;52.220;21.040;2023-05-23T04:25:50;10.20;;;5.00;;
39882;SDS011;55824;52.220;21.040;2023-05-23T04:28:16;6.97;;;4.50;;
39882;SDS011;55824;52.220;21.040;2023-05-23T04:30:43;6.47;;;4.60;;
39882;SDS011;55824;52.220;21.040;2023-05-23T04:33:09;8.77;;;4.20;;
39882;SDS011;55824;52.220;21.040;2023-05-23T04:35:35;6.55;;;4.28;;
39882;SDS011;55824;52.220;21.040;2023-05-23T04:38:04;21.40;;;5.23;;
39882;SDS011;55824;52.220;21.040;2023-05-23T04:40:30;7.22;;;4.30;;
39882;SDS011;55824;52.220;21.040;2023-05-23T04:42:56;7.18;;;4.05;;
39882;SDS011;55824;52.220;21.040;2023-05-23T04:45:22;6.45;;;4.10;;
39882;SDS011;55824;52.220;21.040;2023-05-23T04:47:50;5.75;;;4.03;;
39882;SDS011;55824;52.220;21.040;2023-05-23T04:50:18;6.70;;;4.60;;
39882;SDS011;55824;52.220;21.040;2023-05-23T04:52:46;7.53;;;4.03;;
39882;SDS011;55824;52.220;21.040;2023-05-23T04:55:12;9.00;;;4.18;;
39882;SDS011;55824;52.220;21.040;2023-05-23T04:57:38;7.95;;;4.30;;
39882;SDS011;55824;52.220;21.040;2023-05-23T05:00:04;7.97;;;4.10;;
39882;SDS011;55824;52.220;21.040;2023-05-23T05:02:34;13.82;;;3.72;;
39882;SDS011;55824;52.220;21.040;2023-05-23T05:05:01;6.70;;;4.20;;
39882;SDS011;55824;52.220;21.040;2023-05-23T05:07:28;8.57;;;4.10;;
39882;SDS011;55824;52.220;21.040;2023-05-23T05:09:53;6.32;;;3.75;;
39882;SDS011;55824;52.220;21.040;2023-05-23T05:12:20;7.03;;;4.00;;
39882;SDS011;55824;52.220;21.040;2023-05-23T05:14:45;6.40;;;3.95;;
39882;SDS011;55824;52.220;21.040;2023-05-23T05:17:11;8.40;;;4.15;;
39882;SDS011;55824;52.220;21.040;2023-05-23T05:19:37;6.22;;;3.95;;
39882;SDS011;55824;52.220;21.040;2023-05-23T05:22:03;6.93;;;4.20;;
39882;SDS011;55824;52.220;21.040;2023-05-23T05:24:30;10.68;;;4.00;;
39882;SDS011;55824;52.220;21.040;2023-05-23T05:26:56;16.85;;;4.75;;
39882;SDS011;55824;52.220;21.040;2023-05-23T05:29:22;13.18;;;4.03;;
39882;SDS011;55824;52.220;21.040;2023-05-23T05:31:49;8.82;;;4.45;;
39882;SDS011;55824;52.220;21.040;2023-05-23T05:34:16;12.57;;;4.68;;
39882;SDS011;55824;52.220;21.040;2023-05-23T05:36:42;9.23;;;3.90;;
39882;SDS011;55824;52.220;21.040;2023-05-23T05:39:12;10.20;;;4.63;;
39882;SDS011;55824;52.220;21.040;2023-05-23T05:41:38;9.02;;;4.22;;
39882;SDS011;55824;52.220;21.040;2023-05-23T05:44:04;12.23;;;4.50;;
39882;SDS011;55824;52.220;21.040;2023-05-23T05:46:30;6.28;;;4.40;;
39882;SDS011;55824;52.220;21.040;2023-05-23T05:48:56;11.13;;;4.45;;
39882;SDS011;55824;52.220;21.040;2023-05-23T05:51:22;12.05;;;4.20;;
39882;SDS011;55824;52.220;21.040;2023-05-23T05:53:48;12.90;;;3.80;;
39882;SDS011;55824;52.220;21.040;2023-05-23T05:56:14;9.10;;;4.32;;
39882;SDS011;55824;52.220;21.040;2023-05-23T05:58:40;8.82;;;4.13;;
39882;SDS011;55824;52.220;21.040;2023-05-23T06:01:06;6.50;;;3.65;;
39882;SDS011;55824;52.220;21.040;2023-05-23T06:03:33;6.68;;;3.85;;
39882;SDS011;55824;52.220;21.040;2023-05-23T06:05:59;10.25;;;4.10;;
39882;SDS011;55824;52.220;21.040;2023-05-23T06:08:25;11.05;;;4.25;;
39882;SDS011;55824;52.220;21.040;2023-05-23T06:10:51;10.75;;;4.15;;
39882;SDS011;55824;52.220;21.040;2023-05-23T06:13:17;10.05;;;4.40;;
39882;SDS011;55824;52.220;21.040;2023-05-23T06:15:43;7.80;;;4.13;;
39882;SDS011;55824;52.220;21.040;2023-05-23T06:18:09;11.23;;;3.65;;
39882;SDS011;55824;52.220;21.040;2023-05-23T06:20:35;7.20;;;3.65;;
39882;SDS011;55824;52.220;21.040;2023-05-23T06:23:01;10.68;;;4.25;;
39882;SDS011;55824;52.220;21.040;2023-05-23T06:25:29;7.65;;;3.75;;
39882;SDS011;55824;52.220;21.040;2023-05-23T06:27:55;8.63;;;3.80;;
39882;SDS011;55824;52.220;21.040;2023-05-23T06:30:21;8.73;;;3.45;;
39882;SDS011;55824;52.220;21.040;2023-05-23T06:32:48;7.85;;;3.90;;
39882;SDS011;55824;52.220;21.040;2023-05-23T06:35:14;10.35;;;3.95;;
39882;SDS011;55824;52.220;21.040;2023-05-23T06:37:41;7.47;;;3.90;;
39882;SDS011;55824;52.220;21.040;2023-05-23T06:40:10;6.88;;;3.42;;
39882;SDS011;55824;52.220;21.040;2023-05-23T06:42:36;8.10;;;3.70;;
39882;SDS011;55824;52.220;21.040;2023-05-23T06:45:02;10.70;;;3.55;;
39882;SDS011;55824;52.220;21.040;2023-05-23T06:47:28;8.70;;;3.40;;
39882;SDS011;55824;52.220;21.040;2023-05-23T06:49:54;9.80;;;4.00;;
39882;SDS011;55824;52.220;21.040;2023-05-23T06:52:20;7.75;;;2.85;;
39882;SDS011;55824;52.220;21.040;2023-05-23T06:54:46;9.23;;;4.20;;
39882;SDS011;55824;52.220;21.040;2023-05-23T06:57:12;7.97;;;4.20;;
39882;SDS011;55824;52.220;21.040;2023-05-23T06:59:38;8.07;;;3.63;;
39882;SDS011;55824;52.220;21.040;2023-05-23T07:02:04;5.38;;;3.10;;
39882;SDS011;55824;52.220;21.040;2023-05-23T07:04:30;7.05;;;3.92;;
39882;SDS011;55824;52.220;21.040;2023-05-23T07:06:56;6.60;;;3.85;;
39882;SDS011;55824;52.220;21.040;2023-05-23T07:09:22;7.40;;;3.80;;
39882;SDS011;55824;52.220;21.040;2023-05-23T07:11:48;6.38;;;3.70;;
39882;SDS011;55824;52.220;21.040;2023-05-23T07:14:14;7.93;;;3.20;;
39882;SDS011;55824;52.220;21.040;2023-05-23T07:16:40;6.63;;;3.55;;
39882;SDS011;55824;52.220;21.040;2023-05-23T07:19:06;7.00;;;3.67;;
39882;SDS011;55824;52.220;21.040;2023-05-23T07:21:32;6.10;;;3.58;;
39882;SDS011;55824;52.220;21.040;2023-05-23T07:23:58;5.30;;;3.25;;
39882;SDS011;55824;52.220;21.040;2023-05-23T07:26:24;7.00;;;3.50;;
39882;SDS011;55824;52.220;21.040;2023-05-23T07:28:51;6.93;;;3.35;;
39882;SDS011;55824;52.220;21.040;2023-05-23T07:31:17;4.60;;;3.03;;
39882;SDS011;55824;52.220;21.040;2023-05-23T07:33:43;5.03;;;3.40;;
39882;SDS011;55824;52.220;21.040;2023-05-23T07:36:09;5.03;;;2.88;;
39882;SDS011;55824;52.220;21.040;2023-05-23T07:38:35;7.25;;;3.50;;
39882;SDS011;55824;52.220;21.040;2023-05-23T07:41:01;6.63;;;3.42;;
39882;SDS011;55824;52.220;21.040;2023-05-23T07:43:27;6.80;;;3.35;;
39882;SDS011;55824;52.220;21.040;2023-05-23T07:45:53;8.10;;;3.58;;
39882;SDS011;55824;52.220;21.040;2023-05-23T07:48:19;6.57;;;3.30;;
39882;SDS011;55824;52.220;21.040;2023-05-23T07:50:45;6.55;;;3.75;;
39882;SDS011;55824;52.220;21.040;2023-05-23T07:53:12;6.88;;;3.25;;
39882;SDS011;55824;52.220;21.040;2023-05-23T07:55:38;8.70;;;3.53;;
39882;SDS011;55824;52.220;21.040;2023-05-23T07:58:04;6.78;;;3.20;;
39882;SDS011;55824;52.220;21.040;2023-05-23T08:00:31;5.25;;;3.03;;
39882;SDS011;55824;52.220;21.040;2023-05-23T08:02:57;6.95;;;3.10;;
39882;SDS011;55824;52.220;21.040;2023-05-23T08:05:23;4.88;;;2.90;;
39882;SDS011;55824;52.220;21.040;2023-05-23T08:07:49;6.97;;;4.00;;
39882;SDS011;55824;52.220;21.040;2023-05-23T08:10:17;6.22;;;3.40;;
39882;SDS011;55824;52.220;21.040;2023-05-23T08:12:43;6.45;;;3.50;;
39882;SDS011;55824;52.220;21.040;2023-05-23T08:15:09;5.15;;;3.25;;
39882;SDS011;55824;52.220;21.040;2023-05-23T08:17:35;6.47;;;3.13;;
39882;SDS011;55824;52.220;21.040;2023-05-23T08:20:01;5.55;;;3.10;;
39882;SDS011;55824;52.220;21.040;2023-05-23T08:22:29;6.00;;;3.00;;
39882;SDS011;55824;52.220;21.040;2023-05-23T08:24:55;6.55;;;3.20;;
39882;SDS011;55824;52.220;21.040;2023-05-23T08:27:21;7.63;;;3.20;;
39882;SDS011;55824;52.220;21.040;2023-05-23T08:29:47;5.72;;;3.05;;
39882;SDS011;55824;52.220;21.040;2023-05-23T08:32:13;5.35;;;2.75;;
39882;SDS011;55824;52.220;21.040;2023-05-23T08:34:39;4.38;;;3.00;;
39882;SDS011;55824;52.220;21.040;2023-05-23T08:37:06;4.10;;;2.70;;
39882;SDS011;55824;52.220;21.040;2023-05-23T08:39:32;5.43;;;3.50;;
39882;SDS011;55824;52.220;21.040;2023-05-23T08:41:58;6.22;;;3.35;;
39882;SDS011;55824;52.220;21.040;2023-05-23T08:44:24;6.25;;;2.83;;
39882;SDS011;55824;52.220;21.040;2023-05-23T08:46:50;4.90;;;2.85;;
39882;SDS011;55824;52.220;21.040;2023-05-23T08:49:17;4.82;;;2.80;;
39882;SDS011;55824;52.220;21.040;2023-05-23T08:51:44;5.22;;;2.95;;
39882;SDS011;55824;52.220;21.040;2023-05-23T08:54:11;4.38;;;2.53;;
39882;SDS011;55824;52.220;21.040;2023-05-23T08:56:37;5.22;;;2.58;;
39882;SDS011;55824;52.220;21.040;2023-05-23T08:59:06;5.60;;;2.65;;
39882;SDS011;55824;52.220;21.040;2023-05-23T09:01:33;4.57;;;2.60;;
39882;SDS011;55824;52.220;21.040;2023-05-23T09:03:59;4.70;;;2.42;;
39882;SDS011;55824;52.220;21.040;2023-05-23T09:06:29;3.28;;;2.40;;
39882;SDS011;55824;52.220;21.040;2023-05-23T09:08:56;5.50;;;2.70;;
39882;SDS011;55824;52.220;21.040;2023-05-23T09:11:22;3.88;;;2.65;;
39882;SDS011;55824;52.220;21.040;2023-05-23T09:13:49;4.38;;;2.40;;
39882;SDS011;55824;52.220;21.040;2023-05-23T09:16:15;5.15;;;2.80;;
39882;SDS011;55824;52.220;21.040;2023-05-23T09:18:44;3.72;;;2.60;;
39882;SDS011;55824;52.220;21.040;2023-05-23T09:21:11;5.82;;;2.60;;
39882;SDS011;55824;52.220;21.040;2023-05-23T09:23:38;4.05;;;2.42;;
39882;SDS011;55824;52.220;21.040;2023-05-23T09:26:10;3.72;;;2.33;;
39882;SDS011;55824;52.220;21.040;2023-05-23T09:28:41;5.68;;;2.50;;
39882;SDS011;55824;52.220;21.040;2023-05-23T09:31:07;4.32;;;2.45;;
39882;SDS011;55824;52.220;21.040;2023-05-23T09:33:46;3.42;;;2.53;;
39882;SDS011;55824;52.220;21.040;2023-05-23T09:36:13;4.27;;;2.77;;
39882;SDS011;55824;52.220;21.040;2023-05-23T09:38:40;3.15;;;2.38;;
39882;SDS011;55824;52.220;21.040;2023-05-23T09:41:06;5.25;;;2.47;;
39882;SDS011;55824;52.220;21.040;2023-05-23T09:43:33;5.10;;;2.70;;
39882;SDS011;55824;52.220;21.040;2023-05-23T09:45:59;3.60;;;2.20;;
39882;SDS011;55824;52.220;21.040;2023-05-23T09:48:29;4.18;;;2.05;;
39882;SDS011;55824;52.220;21.040;2023-05-23T09:50:55;4.80;;;2.60;;
39882;SDS011;55824;52.220;21.040;2023-05-23T09:53:21;5.45;;;2.20;;
39882;SDS011;55824;52.220;21.040;2023-05-23T09:55:48;4.28;;;2.40;;
39882;SDS011;55824;52.220;21.040;2023-05-23T09:58:16;4.40;;;2.42;;
39882;SDS011;55824;52.220;21.040;2023-05-23T10:00:44;3.60;;;2.42;;
39882;SDS011;55824;52.220;21.040;2023-05-23T10:03:11;4.10;;;2.45;;
39882;SDS011;55824;52.220;21.040;2023-05-23T10:05:44;5.47;;;2.60;;
39882;SDS011;55824;52.220;21.040;2023-05-23T10:08:28;2.55;;;1.70;;
39882;SDS011;55824;52.220;21.040;2023-05-23T10:13:21;5.20;;;2.00;;
39882;SDS011;55824;52.220;21.040;2023-05-23T10:15:50;3.83;;;2.22;;
39882;SDS011;55824;52.220;21.040;2023-05-23T10:18:20;4.10;;;2.40;;
39882;SDS011;55824;52.220;21.040;2023-05-23T10:20:49;4.10;;;2.50;;
39882;SDS011;55824;52.220;21.040;2023-05-23T10:23:16;4.07;;;2.50;;
39882;SDS011;55824;52.220;21.040;2023-05-23T10:25:43;3.53;;;2.55;;
39882;SDS011;55824;52.220;21.040;2023-05-23T10:28:10;3.90;;;2.08;;
39882;SDS011;55824;52.220;21.040;2023-05-23T10:30:36;3.28;;;2.22;;
39882;SDS011;55824;52.220;21.040;2023-05-23T10:33:02;5.93;;;2.35;;
39882;SDS011;55824;52.220;21.040;2023-05-23T10:46:12;4.07;;;2.40;;
39882;SDS011;55824;52.220;21.040;2023-05-23T10:48:42;3.20;;;2.25;;
39882;SDS011;55824;52.220;21.040;2023-05-23T10:51:09;4.68;;;2.55;;
39882;SDS011;55824;52.220;21.040;2023-05-23T10:53:38;3.80;;;2.15;;
39882;SDS011;55824;52.220;21.040;2023-05-23T10:56:07;3.40;;;2.42;;
39882;SDS011;55824;52.220;21.040;2023-05-23T10:58:42;5.07;;;2.30;;
39882;SDS011;55824;52.220;21.040;2023-05-23T11:01:08;4.95;;;2.22;;
39882;SDS011;55824;52.220;21.040;2023-05-23T11:09:00;3.38;;;2.20;;
39882;SDS011;55824;52.220;21.040;2023-05-23T11:11:45;3.30;;;2.50;;
39882;SDS011;55824;52.220;21.040;2023-05-23T11:14:12;2.60;;;2.05;;
39882;SDS011;55824;52.220;21.040;2023-05-23T11:16:39;4.63;;;2.40;;
39882;SDS011;55824;52.220;21.040;2023-05-23T11:21:44;3.78;;;2.42;;
39882;SDS011;55824;52.220;21.040;2023-05-23T11:24:10;3.80;;;2.25;;
39882;SDS011;55824;52.220;21.040;2023-05-23T11:26:36;3.72;;;2.22;;
39882;SDS011;55824;52.220;21.040;2023-05-23T11:29:02;4.63;;;2.92;;
39882;SDS011;55824;52.220;21.040;2023-05-23T11:31:36;3.75;;;2.22;;
39882;SDS011;55824;52.220;21.040;2023-05-23T11:34:02;3.67;;;2.30;;
39882;SDS011;55824;52.220;21.040;2023-05-23T11:36:29;2.83;;;2.00;;
39882;SDS011;55824;52.220;21.040;2023-05-23T11:38:55;5.43;;;2.70;;
39882;SDS011;55824;52.220;21.040;2023-05-23T11:41:21;3.20;;;2.30;;
39882;SDS011;55824;52.220;21.040;2023-05-23T11:43:48;3.85;;;2.50;;
39882;SDS011;55824;52.220;21.040;2023-05-23T11:46:14;3.20;;;2.38;;
39882;SDS011;55824;52.220;21.040;2023-05-23T11:48:47;3.78;;;2.42;;
39882;SDS011;55824;52.220;21.040;2023-05-23T11:51:15;3.50;;;2.20;;
39882;SDS011;55824;52.220;21.040;2023-05-23T11:53:42;2.92;;;2.08;;
39882;SDS011;55824;52.220;21.040;2023-05-23T11:56:08;4.32;;;2.42;;
39882;SDS011;55824;52.220;21.040;2023-05-23T11:58:34;3.65;;;2.13;;
39882;SDS011;55824;52.220;21.040;2023-05-23T12:01:04;3.92;;;2.50;;
39882;SDS011;55824;52.220;21.040;2023-05-23T12:03:31;3.55;;;2.25;;
39882;SDS011;55824;52.220;21.040;2023-05-23T12:05:57;3.38;;;2.22;;
39882;SDS011;55824;52.220;21.040;2023-05-23T12:08:23;5.43;;;2.47;;
39882;SDS011;55824;52.220;21.040;2023-05-23T12:10:54;3.15;;;2.05;;
39882;SDS011;55824;52.220;21.040;2023-05-23T12:13:24;4.88;;;2.33;;
39882;SDS011;55824;52.220;21.040;2023-05-23T12:18:17;3.05;;;2.03;;
39882;SDS011;55824;52.220;21.040;2023-05-23T12:20:44;3.67;;;2.13;;
39882;SDS011;55824;52.220;21.040;2023-05-23T12:23:16;3.13;;;2.20;;
39882;SDS011;55824;52.220;21.040;2023-05-23T12:25:43;3.33;;;2.15;;
39882;SDS011;55824;52.220;21.040;2023-05-23T12:28:09;5.35;;;2.90;;
39882;SDS011;55824;52.220;21.040;2023-05-23T12:30:41;3.28;;;2.22;;
39882;SDS011;55824;52.220;21.040;2023-05-23T12:33:07;4.85;;;2.00;;
39882;SDS011;55824;52.220;21.040;2023-05-23T12:35:33;5.72;;;2.70;;
39882;SDS011;55824;52.220;21.040;2023-05-23T12:38:00;3.08;;;2.08;;
39882;SDS011;55824;52.220;21.040;2023-05-23T12:40:26;3.05;;;2.22;;
39882;SDS011;55824;52.220;21.040;2023-05-23T12:42:52;3.65;;;2.20;;
39882;SDS011;55824;52.220;21.040;2023-05-23T12:45:19;5.80;;;2.42;;
39882;SDS011;55824;52.220;21.040;2023-05-23T12:47:45;3.33;;;2.20;;
39882;SDS011;55824;52.220;21.040;2023-05-23T12:50:11;3.13;;;2.35;;
39882;SDS011;55824;52.220;21.040;2023-05-23T12:52:38;4.50;;;2.67;;
39882;SDS011;55824;52.220;21.040;2023-05-23T12:55:04;4.20;;;2.08;;
39882;SDS011;55824;52.220;21.040;2023-05-23T12:57:31;3.28;;;2.22;;
39882;SDS011;55824;52.220;21.040;2023-05-23T12:59:57;3.83;;;2.78;;
39882;SDS011;55824;52.220;21.040;2023-05-23T13:02:23;4.07;;;2.10;;
39882;SDS011;55824;52.220;21.040;2023-05-23T13:04:50;3.80;;;2.50;;
39882;SDS011;55824;52.220;21.040;2023-05-23T13:07:16;5.00;;;2.60;;
39882;SDS011;55824;52.220;21.040;2023-05-23T13:09:42;4.13;;;2.53;;
39882;SDS011;55824;52.220;21.040;2023-05-23T13:12:08;6.65;;;2.60;;
39882;SDS011;55824;52.220;21.040;2023-05-23T13:14:34;2.97;;;2.13;;
39882;SDS011;55824;52.220;21.040;2023-05-23T13:17:00;3.38;;;2.22;;
39882;SDS011;55824;52.220;21.040;2023-05-23T13:19:26;6.85;;;2.28;;
39882;SDS011;55824;52.220;21.040;2023-05-23T13:21:52;3.13;;;2.20;;
39882;SDS011;55824;52.220;21.040;2023-05-23T13:24:18;3.03;;;2.40;;
39882;SDS011;55824;52.220;21.040;2023-05-23T13:26:44;4.15;;;2.70;;
39882;SDS011;55824;52.220;21.040;2023-05-23T13:29:10;4.50;;;2.50;;
39882;SDS011;55824;52.220;21.040;2023-05-23T13:31:36;4.07;;;2.42;;
39882;SDS011;55824;52.220;21.040;2023-05-23T13:34:02;4.20;;;2.30;;
39882;SDS011;55824;52.220;21.040;2023-05-23T13:36:28;3.13;;;2.25;;
39882;SDS011;55824;52.220;21.040;2023-05-23T13:38:54;3.90;;;2.33;;
39882;SDS011;55824;52.220;21.040;2023-05-23T13:41:20;3.75;;;2.58;;
39882;SDS011;55824;52.220;21.040;2023-05-23T13:43:47;3.10;;;2.20;;
39882;SDS011;55824;52.220;21.040;2023-05-23T13:46:13;3.65;;;2.35;;
39882;SDS011;55824;52.220;21.040;2023-05-23T13:48:39;3.70;;;2.33;;
39882;SDS011;55824;52.220;21.040;2023-05-23T13:51:05;3.08;;;2.28;;
39882;SDS011;55824;52.220;21.040;2023-05-23T13:53:31;4.60;;;2.40;;
39882;SDS011;55824;52.220;21.040;2023-05-23T13:55:57;3.88;;;2.08;;
39882;SDS011;55824;52.220;21.040;2023-05-23T13:58:23;4.10;;;2.28;;
39882;SDS011;55824;52.220;21.040;2023-05-23T14:00:49;4.90;;;2.88;;
39882;SDS011;55824;52.220;21.040;2023-05-23T14:03:15;3.30;;;2.30;;
39882;SDS011;55824;52.220;21.040;2023-05-23T14:05:43;4.82;;;2.75;;
39882;SDS011;55824;52.220;21.040;2023-05-23T14:08:09;3.25;;;2.35;;
39882;SDS011;55824;52.220;21.040;2023-05-23T14:10:37;3.90;;;2.30;;
39882;SDS011;55824;52.220;21.040;2023-05-23T14:13:03;5.63;;;2.78;;
39882;SDS011;55824;52.220;21.040;2023-05-23T14:15:29;3.40;;;2.70;;
39882;SDS011;55824;52.220;21.040;2023-05-23T14:17:55;2.85;;;2.20;;
39882;SDS011;55824;52.220;21.040;2023-05-23T14:20:21;4.88;;;2.78;;
39882;SDS011;55824;52.220;21.040;2023-05-23T14:22:48;3.97;;;2.05;;
39882;SDS011;55824;52.220;21.040;2023-05-23T14:25:14;4.70;;;2.70;;
39882;SDS011;55824;52.220;21.040;2023-05-23T14:27:41;2.72;;;2.42;;
39882;SDS011;55824;52.220;21.040;2023-05-23T14:30:07;3.78;;;2.55;;
39882;SDS011;55824;52.220;21.040;2023-05-23T14:32:33;4.10;;;2.03;;
39882;SDS011;55824;52.220;21.040;2023-05-23T14:35:03;3.05;;;2.33;;
39882;SDS011;55824;52.220;21.040;2023-05-23T14:37:29;4.03;;;2.90;;
39882;SDS011;55824;52.220;21.040;2023-05-23T14:39:56;3.13;;;2.20;;
39882;SDS011;55824;52.220;21.040;2023-05-23T14:42:22;3.50;;;2.33;;
39882;SDS011;55824;52.220;21.040;2023-05-23T14:44:48;4.78;;;2.50;;
39882;SDS011;55824;52.220;21.040;2023-05-23T14:47:14;4.90;;;2.70;;
39882;SDS011;55824;52.220;21.040;2023-05-23T14:49:40;4.72;;;2.70;;
39882;SDS011;55824;52.220;21.040;2023-05-23T14:52:06;4.45;;;3.25;;
39882;SDS011;55824;52.220;21.040;2023-05-23T14:54:32;6.68;;;3.00;;
39882;SDS011;55824;52.220;21.040;2023-05-23T14:56:58;4.47;;;2.80;;
39882;SDS011;55824;52.220;21.040;2023-05-23T14:59:25;5.00;;;2.95;;
39882;SDS011;55824;52.220;21.040;2023-05-23T15:01:52;5.63;;;3.15;;
39882;SDS011;55824;52.220;21.040;2023-05-23T15:04:18;3.60;;;2.80;;
39882;SDS011;55824;52.220;21.040;2023-05-23T15:06:44;5.35;;;2.90;;
39882;SDS011;55824;52.220;21.040;2023-05-23T15:09:11;3.35;;;2.60;;